Time;durP1;ratioP1;P1;durP2;ratioP2;P2;SDS_P1;SDS_P2;PMS_P1;PMS_P2;Temp;Humidity;BMP_temperature;BMP_pressure;BME280_temperature;BME280_humidity;BME280_pressure;Samples;Min_cycle;Max_cycle;Signal;HPM_P1;HPM_P2
2023/12/18 00:02:20;;;;;;;51.75;24.80;;;3.60;84.80;;;2.08;100.00;102585.97;5007037;28;20153;-79
2023/12/18 00:04:47;;;;;;;54.85;29.10;;;3.50;85.30;;;2.08;100.00;102578.19;4974045;28;20053;-78
2023/12/18 00:07:15;;;;;;;43.28;24.83;;;3.50;85.60;;;2.05;100.00;102565.06;4979651;28;20046;-77
2023/12/18 00:09:42;;;;;;;45.78;26.13;;;3.50;85.40;;;2.26;100.00;102586.88;4967078;28;20050;-79
2023/12/18 00:12:10;;;;;;;46.80;25.70;;;3.60;84.60;;;2.21;100.00;102582.28;4997105;28;21590;-79
2023/12/18 00:14:37;;;;;;;49.88;27.70;;;3.60;83.10;;;2.25;100.00;102572.06;4989717;28;20145;-79
2023/12/18 00:17:05;;;;;;;53.03;26.25;;;3.50;81.50;;;2.23;100.00;102567.66;4993395;28;20056;-79
2023/12/18 00:19:32;;;;;;;52.25;27.00;;;3.60;82.20;;;2.03;100.00;102540.75;4991220;28;20143;-79
2023/12/18 00:21:59;;;;;;;54.80;27.58;;;3.60;84.50;;;2.02;100.00;102544.16;5021141;28;20057;-79
2023/12/18 00:24:26;;;;;;;45.30;25.75;;;3.50;83.90;;;2.12;100.00;102570.63;4970880;28;20123;-79
2023/12/18 00:26:53;;;;;;;51.53;29.05;;;3.50;85.00;;;2.13;100.00;102563.75;4993411;28;20069;-78
2023/12/18 00:29:20;;;;;;;46.72;26.25;;;3.60;84.30;;;2.19;100.00;102571.78;4979520;28;20145;-78
2023/12/18 00:31:48;;;;;;;43.67;27.60;;;3.60;83.60;;;2.16;100.00;102557.78;4983455;28;20188;-79
2023/12/18 00:34:15;;;;;;;48.90;27.02;;;3.60;83.00;;;2.17;100.00;102551.75;4997903;28;20046;-80
2023/12/18 00:36:45;;;;;;;49.42;26.08;;;3.70;81.80;;;2.28;100.00;102562.66;4988293;28;20046;-79
2023/12/18 00:39:15;;;;;;;48.58;26.30;;;3.60;81.50;;;2.22;100.00;102555.47;4990155;28;20042;-78
2023/12/18 00:41:43;;;;;;;50.20;26.35;;;3.60;81.20;;;2.24;100.00;102541.72;4973056;28;20096;-80
2023/12/18 00:44:10;;;;;;;48.20;26.08;;;4.60;81.90;;;2.09;100.00;102530.63;4968657;28;20077;-80
2023/12/18 00:46:37;;;;;;;53.80;26.90;;;3.60;81.70;;;1.66;100.00;102455.16;4988913;28;20070;-79
2023/12/18 00:49:04;;;;;;;48.72;26.88;;;3.60;82.10;;;1.90;100.00;102502.94;4995998;28;20461;-80
2023/12/18 00:51:31;;;;;;;51.40;27.83;;;3.60;82.80;;;2.16;100.00;102532.69;4986215;28;20066;-79
2023/12/18 00:54:01;;;;;;;51.08;27.95;;;3.50;83.70;;;1.95;100.00;102504.94;4974426;28;20042;-79
2023/12/18 00:56:30;;;;;;;53.17;27.85;;;3.40;85.60;;;2.01;100.00;102509.50;4987422;28;20041;-79
2023/12/18 00:58:57;;;;;;;50.38;25.20;;;3.50;85.90;;;1.97;100.00;102502.41;4966328;28;20050;-79
2023/12/18 01:01:24;;;;;;;51.35;28.38;;;3.50;85.10;;;2.17;100.00;102538.78;5003192;28;20129;-79
2023/12/18 01:03:51;;;;;;;43.85;27.00;;;3.70;84.10;;;2.16;100.00;102537.00;4988557;28;20080;-79
2023/12/18 01:06:18;;;;;;;51.80;27.63;;;3.60;84.10;;;2.16;100.00;102524.91;4996140;28;20137;-80
2023/12/18 01:08:45;;;;;;;47.83;26.27;;;3.70;83.90;;;2.18;100.00;102524.97;4988419;28;20622;-78
2023/12/18 01:11:12;;;;;;;54.25;27.70;;;4.80;81.70;;;2.15;100.00;102519.63;4992151;28;20124;-79
2023/12/18 01:13:40;;;;;;;57.85;27.63;;;3.70;81.60;;;2.28;100.00;102545.34;4985753;28;20748;-79
2023/12/18 01:16:07;;;;;;;56.72;26.60;;;5.10;81.50;;;2.20;100.00;102523.34;5021104;28;20069;-79
2023/12/18 01:18:34;;;;;;;62.22;27.75;;;3.70;80.10;;;1.98;100.00;102502.47;4981634;28;20113;-79
2023/12/18 01:21:03;;;;;;;46.72;24.83;;;3.60;79.90;;;1.94;100.00;102490.16;5016123;28;20048;-78
2023/12/18 01:23:33;;;;;;;47.35;25.02;;;3.60;82.80;;;2.10;100.00;102517.72;4996987;28;20058;-79
2023/12/18 01:26:01;;;;;;;56.65;26.92;;;3.60;83.10;;;2.19;100.00;102532.84;4988624;28;20100;-79
2023/12/18 01:28:28;;;;;;;54.78;26.58;;;3.50;84.10;;;2.15;100.00;102533.53;4985836;28;20456;-79
2023/12/18 01:30:55;;;;;;;55.00;26.25;;;3.70;83.30;;;2.19;100.00;102525.03;4989118;28;20042;-79
2023/12/18 01:33:23;;;;;;;56.20;28.20;;;3.70;82.10;;;2.23;100.00;102531.28;4988492;28;20073;-79
2023/12/18 01:35:50;;;;;;;60.90;26.10;;;3.60;83.60;;;1.73;100.00;102455.44;4987070;28;20045;-79
2023/12/18 01:38:17;;;;;;;56.05;27.75;;;5.10;84.00;;;2.21;100.00;102525.13;5000285;28;20140;-78
2023/12/18 01:40:44;;;;;;;61.28;27.65;;;3.60;83.10;;;2.28;100.00;102539.28;5003423;28;20517;-80
2023/12/18 01:43:28;;;;;;;49.95;29.13;;;3.90;82.70;;;2.30;100.00;102535.03;4991784;28;20050;-78
2023/12/18 01:45:58;;;;;;;50.47;25.20;;;4.40;81.20;;;2.29;100.00;102526.34;4983179;28;20128;-78
2023/12/18 01:48:27;;;;;;;60.25;26.45;;;3.70;77.80;;;2.35;100.00;102529.25;4991540;28;20052;-79
2023/12/18 01:50:56;;;;;;;59.03;26.08;;;3.70;76.30;;;2.17;100.00;102515.41;4982895;28;20509;-80
2023/12/18 01:53:33;;;;;;;47.55;27.13;;;4.50;77.70;;;2.21;100.00;102517.34;4980866;28;20077;-80
2023/12/18 01:56:02;;;;;;;45.65;25.02;;;3.70;80.00;;;2.01;100.00;102480.94;5003635;28;20472;-78
2023/12/18 01:58:33;;;;;;;48.92;27.60;;;3.70;79.90;;;2.23;100.00;102497.50;4998590;28;20124;-80
2023/12/18 02:01:01;;;;;;;58.30;25.67;;;3.70;78.80;;;2.04;100.00;102478.50;4977203;28;20801;-79
2023/12/18 02:03:30;;;;;;;44.42;24.83;;;3.80;75.20;;;2.37;100.00;102516.28;4983624;28;20085;-81
2023/12/18 02:05:57;;;;;;;54.70;26.20;;;3.70;75.00;;;2.09;100.00;102479.59;4987260;28;20078;-79
2023/12/18 02:08:25;;;;;;;43.80;25.88;;;3.90;74.70;;;2.39;100.00;102520.75;4987281;28;20046;-81
2023/12/18 02:10:57;;;;;;;51.75;28.00;;;3.90;74.60;;;2.43;100.00;102516.59;4995290;28;20140;-79
2023/12/18 02:13:24;;;;;;;49.70;26.65;;;3.90;72.50;;;2.38;100.00;102485.19;4989923;28;20496;-80
2023/12/18 02:15:51;;;;;;;50.47;28.42;;;4.00;70.60;;;2.57;100.00;102505.88;4991969;28;20120;-79
2023/12/18 02:18:18;;;;;;;52.78;28.80;;;5.30;68.30;;;2.38;100.00;102471.31;4989982;28;20070;-80
2023/12/18 02:20:45;;;;;;;49.03;25.55;;;3.90;66.70;;;2.28;100.00;102463.94;4996299;28;20049;-80
2023/12/18 02:23:12;;;;;;;44.83;27.02;;;3.90;67.70;;;2.41;100.00;102481.81;4985218;28;20874;-79
2023/12/18 02:25:39;;;;;;;56.75;26.02;;;3.90;68.60;;;2.24;100.00;102453.41;4975882;28;20177;-79
2023/12/18 02:28:10;;;;;;;44.40;23.55;;;3.90;67.70;;;2.44;100.00;102481.06;4997241;28;20065;-79
2023/12/18 02:30:37;;;;;;;43.38;25.73;;;3.90;68.50;;;2.33;100.00;102463.28;4987935;28;20042;-79
2023/12/18 02:33:05;;;;;;;45.17;24.35;;;3.80;69.70;;;2.10;100.00;102429.44;5013003;28;20698;-79
2023/12/18 02:35:32;;;;;;;45.90;25.85;;;3.80;69.60;;;2.41;100.00;102481.81;4996456;28;20790;-79
2023/12/18 02:37:59;;;;;;;45.85;26.35;;;3.80;70.30;;;2.51;100.00;102491.81;4997349;28;20552;-79
2023/12/18 02:40:26;;;;;;;47.40;24.63;;;3.80;69.00;;;2.47;100.00;102484.72;5010893;28;20165;-80
2023/12/18 02:42:53;;;;;;;52.35;24.70;;;3.90;67.10;;;2.46;100.00;102485.53;4997040;28;20054;-80
2023/12/18 02:45:20;;;;;;;43.97;24.48;;;3.90;64.30;;;2.52;100.00;102498.78;4972745;28;20583;-79
2023/12/18 02:47:48;;;;;;;45.95;24.75;;;3.90;64.30;;;2.49;100.00;102493.44;4993453;28;20050;-79
2023/12/18 02:50:18;;;;;;;48.78;26.05;;;3.90;66.50;;;2.44;100.00;102489.78;5000205;28;20133;-79
2023/12/18 02:52:45;;;;;;;63.67;26.98;;;3.80;67.70;;;2.41;100.00;102487.91;4997821;28;20122;-80
2023/12/18 02:55:13;;;;;;;53.70;24.63;;;3.80;66.80;;;2.37;100.00;102490.31;5005583;28;20077;-79
2023/12/18 02:57:40;;;;;;;43.45;25.38;;;3.80;69.00;;;2.40;100.00;102495.63;4994513;28;20596;-77
2023/12/18 03:00:08;;;;;;;54.92;23.92;;;3.80;68.30;;;2.38;100.00;102482.59;4990961;28;20145;-78
2023/12/18 03:02:38;;;;;;;46.95;21.83;;;3.80;65.70;;;2.35;100.00;102487.66;5001612;28;20050;-78
2023/12/18 03:05:05;;;;;;;41.08;23.45;;;3.80;63.20;;;2.30;100.00;102480.47;4987950;28;20790;-77
2023/12/18 03:07:32;;;;;;;40.05;22.27;;;3.80;65.20;;;2.21;100.00;102471.44;4982277;28;20103;-77
2023/12/18 03:10:02;;;;;;;39.10;22.77;;;3.70;66.00;;;2.28;100.00;102471.75;4985703;28;20052;-77
2023/12/18 03:12:30;;;;;;;38.83;23.20;;;3.80;65.80;;;2.24;100.00;102473.31;4980536;28;20105;-77
2023/12/18 03:14:57;;;;;;;36.67;23.15;;;3.80;65.10;;;2.25;100.00;102457.75;5009898;28;20462;-78
2023/12/18 03:17:26;;;;;;;37.30;22.77;;;4.30;62.10;;;1.90;100.00;102392.19;4995091;28;20039;-77
2023/12/18 03:19:53;;;;;;;36.60;23.08;;;3.90;59.30;;;2.37;100.00;102461.72;4979033;28;20437;-78
2023/12/18 03:22:20;;;;;;;38.53;23.45;;;3.90;57.40;;;2.46;100.00;102479.44;4991299;28;20650;-77
2023/12/18 03:24:47;;;;;;;42.72;25.10;;;3.90;57.50;;;2.29;100.00;102450.13;4976556;28;20050;-78
2023/12/18 03:27:15;;;;;;;35.33;21.92;;;3.80;53.50;;;2.34;100.00;102469.41;4989111;28;20038;-77
2023/12/18 03:29:42;;;;;;;39.13;23.40;;;3.70;55.50;;;2.17;100.00;102446.16;4982612;28;20050;-77
2023/12/18 03:32:09;;;;;;;40.22;22.95;;;3.80;58.50;;;2.28;100.00;102463.94;4976795;28;20046;-76
2023/12/18 03:34:36;;;;;;;33.75;21.40;;;5.00;62.10;;;2.15;100.00;102468.59;5002286;28;20191;-78
2023/12/18 03:37:03;;;;;;;39.53;22.42;;;4.40;62.40;;;2.11;100.00;102466.69;4999886;28;20046;-78
2023/12/18 03:39:30;;;;;;;36.15;23.17;;;5.20;64.10;;;2.16;100.00;102459.97;5008987;28;20038;-78
2023/12/18 03:41:57;;;;;;;45.25;23.05;;;3.50;61.90;;;2.21;100.00;102461.06;4998052;28;20039;-80
2023/12/18 03:44:25;;;;;;;45.92;23.15;;;3.50;61.50;;;1.89;100.00;102431.06;5000535;28;20092;-79
2023/12/18 03:46:52;;;;;;;39.08;21.48;;;3.50;62.90;;;2.20;100.00;102469.69;4995990;28;20050;-79
2023/12/18 03:49:19;;;;;;;38.20;23.05;;;3.70;63.30;;;2.07;100.00;102446.56;5026366;28;20042;-80
2023/12/18 03:51:49;;;;;;;39.10;24.17;;;3.60;60.50;;;2.11;100.00;102456.31;5016998;28;20149;-80
2023/12/18 03:54:16;;;;;;;41.45;24.10;;;3.50;61.70;;;2.08;100.00;102451.84;4999828;28;20073;-79
2023/12/18 03:56:43;;;;;;;34.78;22.67;;;3.40;64.70;;;2.00;100.00;102441.94;4980968;28;20065;-80
2023/12/18 03:59:10;;;;;;;36.97;21.95;;;3.50;65.30;;;2.08;100.00;102461.31;4991936;28;20531;-80
2023/12/18 04:01:37;;;;;;;42.97;24.20;;;4.50;62.70;;;1.90;100.00;102436.31;4995229;28;20120;-79
2023/12/18 04:04:04;;;;;;;37.53;22.98;;;3.40;63.10;;;2.12;100.00;102476.25;5023624;28;20050;-79
2023/12/18 04:06:35;;;;;;;37.17;23.10;;;3.50;64.90;;;2.08;100.00;102472.63;4989098;28;20056;-79
2023/12/18 04:09:03;;;;;;;33.85;21.67;;;3.50;63.30;;;2.15;100.00;102473.78;4994514;28;20073;-79
2023/12/18 04:11:31;;;;;;;41.42;23.42;;;3.60;60.20;;;2.16;100.00;102459.06;5012144;28;20038;-80
2023/12/18 04:13:58;;;;;;;38.95;24.13;;;3.60;58.80;;;2.16;100.00;102453.88;4996529;28;20099;-79
2023/12/18 04:16:25;;;;;;;39.53;24.85;;;3.70;55.50;;;2.12;100.00;102447.69;4991465;28;20516;-80
2023/12/18 04:18:52;;;;;;;39.05;24.95;;;3.70;54.60;;;1.95;100.00;102429.66;4990118;28;20158;-80
2023/12/18 04:21:19;;;;;;;37.80;25.27;;;3.60;57.10;;;2.10;100.00;102460.59;5001867;28;20046;-79
2023/12/18 04:23:46;;;;;;;37.47;24.30;;;3.50;59.50;;;1.92;100.00;102432.06;4993801;28;20107;-79
2023/12/18 04:26:13;;;;;;;38.13;24.42;;;3.40;62.30;;;1.87;100.00;102438.78;4995861;28;20081;-80
2023/12/18 04:28:40;;;;;;;39.60;24.00;;;3.80;65.40;;;1.86;100.00;102428.31;4996116;28;20056;-80
2023/12/18 04:31:07;;;;;;;38.00;24.50;;;3.30;65.10;;;1.94;100.00;102437.34;4992225;28;20050;-78
2023/12/18 04:33:38;;;;;;;41.50;26.13;;;3.40;65.80;;;2.04;100.00;102455.13;4989663;28;20100;-79
2023/12/18 04:36:09;;;;;;;39.17;24.38;;;3.30;66.30;;;1.91;100.00;102438.09;4987197;28;20054;-80
2023/12/18 04:38:36;;;;;;;38.38;24.88;;;3.40;65.20;;;2.08;100.00;102456.13;4998710;28;20058;-79
2023/12/18 04:41:03;;;;;;;41.03;24.17;;;3.40;63.80;;;2.05;100.00;102448.22;4978312;28;20086;-79
2023/12/18 04:43:30;;;;;;;39.70;24.10;;;3.50;60.70;;;2.11;100.00;102454.56;4996373;28;20128;-79
2023/12/18 04:46:00;;;;;;;40.45;24.88;;;4.90;59.20;;;1.89;100.00;102423.28;5003805;28;20160;-79
2023/12/18 04:48:30;;;;;;;38.55;25.88;;;3.60;58.50;;;2.04;100.00;102444.75;4995175;28;20041;-80
2023/12/18 04:50:57;;;;;;;37.60;24.38;;;3.60;54.70;;;1.89;100.00;102415.50;4993599;28;20448;-81
2023/12/18 04:53:25;;;;;;;39.08;23.98;;;3.70;56.00;;;1.88;100.00;102412.00;4989983;28;20039;-79
2023/12/18 04:55:52;;;;;;;37.85;24.05;;;3.50;55.20;;;1.85;100.00;102419.66;5019195;28;20047;-80
2023/12/18 04:58:19;;;;;;;44.65;25.88;;;3.40;57.20;;;1.82;100.00;102435.09;4969675;28;20057;-80
2023/12/18 05:00:46;;;;;;;39.42;24.58;;;3.30;56.20;;;1.82;100.00;102424.72;5007520;28;20556;-79
2023/12/18 05:03:13;;;;;;;36.97;23.33;;;3.30;58.40;;;1.41;100.00;102367.53;4978116;28;20879;-80
2023/12/18 05:05:40;;;;;;;36.22;24.83;;;3.60;59.60;;;1.82;100.00;102428.19;4992884;28;20049;-81
2023/12/18 05:08:10;;;;;;;39.58;25.17;;;3.40;58.40;;;1.94;100.00;102453.81;4991768;28;20057;-80
2023/12/18 05:10:37;;;;;;;35.65;22.45;;;3.30;61.50;;;1.86;100.00;102446.50;4988116;28;20164;-80
2023/12/18 05:13:04;;;;;;;40.13;25.42;;;3.20;63.30;;;1.57;100.00;102421.00;4988232;28;20042;-79
2023/12/18 05:15:31;;;;;;;39.63;23.60;;;4.60;64.70;;;1.77;100.00;102446.97;4986994;28;20045;-80
2023/12/18 05:17:58;;;;;;;36.75;22.58;;;3.50;64.20;;;1.84;100.00;102446.44;4991303;28;20046;-80
2023/12/18 05:20:25;;;;;;;36.53;23.52;;;3.30;60.70;;;1.64;100.00;102415.28;4981353;28;20472;-80
2023/12/18 05:22:55;;;;;;;40.67;28.92;;;3.40;58.30;;;1.97;100.00;102461.75;4995611;28;20050;-79
2023/12/18 05:25:22;;;;;;;40.20;28.02;;;3.40;55.30;;;1.89;100.00;102442.34;4997500;28;20045;-79
2023/12/18 05:27:49;;;;;;;38.28;26.15;;;3.40;55.30;;;1.79;100.00;102427.16;4984274;28;20536;-79
2023/12/18 05:30:16;;;;;;;35.72;23.95;;;3.40;54.40;;;1.98;100.00;102454.84;5021087;28;20046;-79
2023/12/18 05:32:43;;;;;;;41.58;27.65;;;4.20;54.50;;;1.92;100.00;102446.78;4981897;28;20593;-80
2023/12/18 05:35:11;;;;;;;43.50;30.35;;;3.60;52.60;;;1.81;100.00;102428.13;4979049;28;20585;-80
2023/12/18 05:37:38;;;;;;;38.00;25.17;;;3.50;48.80;;;1.48;100.00;102366.06;4984049;28;20141;-79
2023/12/18 05:40:05;;;;;;;85.35;70.63;;;4.40;45.70;;;2.03;100.00;102463.75;5022012;28;20511;-79
2023/12/18 05:42:32;;;;;;;105.25;93.85;;;3.50;43.90;;;1.87;100.00;102443.97;4987070;28;20790;-79
2023/12/18 05:45:00;;;;;;;39.58;28.83;;;3.50;44.40;;;1.75;100.00;102440.81;4944606;28;20909;-79
2023/12/18 05:47:27;;;;;;;40.35;27.58;;;3.40;47.40;;;1.93;100.00;102459.81;4984897;28;20416;-78
2023/12/18 05:49:54;;;;;;;37.75;25.83;;;3.40;48.50;;;1.63;100.00;102439.41;5003433;28;20046;-80
2023/12/18 05:52:21;;;;;;;34.28;24.80;;;3.30;51.70;;;1.84;100.00;102475.88;4984147;28;20054;-79
2023/12/18 05:54:48;;;;;;;37.47;26.17;;;3.20;54.10;;;1.86;100.00;102475.94;4973779;28;20042;-79
2023/12/18 05:57:16;;;;;;;39.88;25.98;;;3.30;54.10;;;1.73;100.00;102453.75;4988445;28;20122;-79
2023/12/18 05:59:44;;;;;;;55.47;40.53;;;3.30;56.30;;;1.90;100.00;102484.78;5002898;28;20050;-79
2023/12/18 06:02:11;;;;;;;59.50;44.63;;;3.30;55.30;;;1.22;100.00;102376.13;4997985;28;20140;-80
2023/12/18 06:04:41;;;;;;;60.45;46.88;;;4.00;54.40;;;1.75;100.00;102462.47;4991271;28;20085;-79
2023/12/18 06:07:11;;;;;;;70.88;44.92;;;4.00;56.70;;;1.41;100.00;102419.41;4999761;28;20065;-79
2023/12/18 06:09:39;;;;;;;51.92;35.00;;;4.30;56.90;;;1.86;100.00;102488.94;4990735;28;20042;-80
2023/12/18 06:12:06;;;;;;;43.90;28.90;;;3.10;57.20;;;1.70;100.00;102464.84;4984961;28;20054;-79
2023/12/18 06:14:33;;;;;;;40.03;26.85;;;3.20;57.00;;;1.79;100.00;102469.59;4993326;28;20488;-80
2023/12/18 06:17:00;;;;;;;37.15;24.50;;;3.10;53.50;;;1.66;100.00;102434.41;4981580;28;20763;-78
2023/12/18 06:19:28;;;;;;;35.22;24.20;;;3.40;50.30;;;1.90;100.00;102488.25;4988096;28;20117;-77
2023/12/18 06:21:55;;;;;;;40.30;24.83;;;3.40;51.60;;;1.84;100.00;102456.81;4986244;28;20128;-76
2023/12/18 06:24:22;;;;;;;37.10;26.08;;;3.40;50.20;;;1.83;100.00;102461.09;4993786;28;20477;-77
2023/12/18 06:26:49;;;;;;;40.95;26.95;;;4.50;48.90;;;1.96;100.00;102491.13;4994198;28;20046;-77
2023/12/18 06:29:16;;;;;;;35.20;23.13;;;3.40;48.40;;;1.66;100.00;102444.78;5011456;28;20125;-79
2023/12/18 06:31:43;;;;;;;39.63;25.50;;;3.40;46.10;;;1.86;100.00;102480.22;4994017;28;20042;-79
2023/12/18 06:34:11;;;;;;;35.67;25.40;;;3.40;46.70;;;1.82;100.00;102474.03;5001955;28;20042;-78
2023/12/18 06:36:38;;;;;;;36.45;24.20;;;3.30;46.10;;;1.80;100.00;102494.72;5004574;28;20472;-79
2023/12/18 06:39:05;;;;;;;35.25;23.30;;;3.10;50.70;;;1.57;100.00;102472.88;4982850;28;20124;-78
2023/12/18 06:41:32;;;;;;;37.15;22.80;;;3.10;55.70;;;1.70;100.00;102496.00;4982078;28;20053;-78
2023/12/18 06:44:00;;;;;;;37.50;24.48;;;3.30;56.50;;;1.67;100.00;102477.69;5002812;28;20113;-77
2023/12/18 06:46:27;;;;;;;35.78;22.63;;;3.20;54.00;;;1.67;100.00;102469.91;4985660;28;20077;-78
2023/12/18 06:48:56;;;;;;;49.75;32.15;;;3.20;52.90;;;1.70;100.00;102483.03;4991026;28;20046;-78
2023/12/18 06:51:23;;;;;;;40.15;27.73;;;3.20;50.80;;;1.62;100.00;102494.75;5002931;28;20046;-78
2023/12/18 06:53:50;;;;;;;35.50;25.30;;;3.20;52.40;;;1.71;100.00;102509.84;4994348;28;20340;-78
2023/12/18 06:56:17;;;;;;;49.67;27.95;;;3.10;53.10;;;1.58;100.00;102487.63;4992178;28;20475;-77
2023/12/18 06:58:44;;;;;;;37.78;23.63;;;3.20;52.90;;;1.45;100.00;102475.78;4994103;28;20050;-78
2023/12/18 07:01:15;;;;;;;38.80;24.77;;;3.00;54.30;;;1.48;100.00;102498.38;4990402;28;20117;-78
2023/12/18 07:03:43;;;;;;;31.58;21.42;;;3.00;55.40;;;1.49;100.00;102500.19;4970529;28;20050;-78
2023/12/18 07:06:10;;;;;;;36.60;23.77;;;2.90;58.50;;;1.30;100.00;102475.94;5008208;28;20134;-78
2023/12/18 07:08:37;;;;;;;41.92;23.90;;;2.80;60.90;;;1.36;100.00;102480.53;5009181;28;20488;-77
2023/12/18 07:11:07;;;;;;;28.07;19.13;;;2.90;58.90;;;1.26;100.00;102463.63;5010201;28;20077;-78
2023/12/18 07:13:34;;;;;;;35.22;22.92;;;3.90;61.70;;;1.34;100.00;102485.66;5010413;28;20290;-78
2023/12/18 07:16:00;;;;;;;32.70;23.73;;;2.90;58.90;;;1.31;100.00;102493.28;4992584;28;20132;-78
2023/12/18 07:18:27;;;;;;;32.92;21.42;;;2.70;61.50;;;1.29;100.00;102484.53;4999134;28;20042;-79
2023/12/18 07:20:55;;;;;;;37.38;24.67;;;2.80;62.60;;;1.31;100.00;102487.22;4985315;28;20042;-84
2023/12/18 07:23:22;;;;;;;34.30;22.30;;;4.60;61.60;;;1.40;100.00;102495.41;5001567;28;20037;-81
2023/12/18 07:25:49;;;;;;;35.58;24.15;;;2.80;61.30;;;1.42;100.00;102504.19;4988373;28;20057;-78
2023/12/18 07:28:16;;;;;;;33.65;22.98;;;4.30;62.00;;;1.46;100.00;102500.00;4995104;28;20060;-81
2023/12/18 07:30:43;;;;;;;39.22;26.48;;;3.00;60.20;;;1.55;100.00;102506.53;4994207;28;20504;-78
2023/12/18 07:33:11;;;;;;;38.90;25.20;;;2.90;53.90;;;1.40;100.00;102478.16;5007961;28;20050;-78
2023/12/18 07:35:38;;;;;;;39.38;22.67;;;2.90;55.10;;;1.41;100.00;102481.66;4986207;28;20162;-78
2023/12/18 07:38:05;;;;;;;37.17;21.23;;;2.80;52.00;;;1.43;100.00;102490.41;4993654;28;20380;-78
2023/12/18 07:40:32;;;;;;;37.00;24.67;;;2.90;50.00;;;1.15;100.00;102449.25;5008979;28;20116;-79
2023/12/18 07:42:59;;;;;;;42.22;28.73;;;2.90;48.40;;;1.39;100.00;102512.69;4998451;28;20105;-80
2023/12/18 07:45:26;;;;;;;33.38;22.70;;;2.80;52.10;;;1.34;100.00;102511.59;4957285;28;20050;-77
2023/12/18 07:47:53;;;;;;;29.48;20.55;;;3.40;53.90;;;1.15;100.00;102482.97;4988631;28;20060;-78
2023/12/18 07:50:21;;;;;;;27.38;20.45;;;2.70;54.00;;;1.06;100.00;102481.72;5003456;28;20070;-79
2023/12/18 07:52:48;;;;;;;28.33;21.08;;;2.60;58.00;;;1.03;100.00;102483.25;4988027;28;20521;-78
2023/12/18 07:55:15;;;;;;;31.50;23.38;;;2.60;60.70;;;0.88;100.00;102484.28;4980559;28;20145;-78
2023/12/18 07:57:42;;;;;;;37.22;31.42;;;2.60;63.30;;;0.86;100.00;102501.47;4966978;28;20046;-79
2023/12/18 08:00:10;;;;;;;123.70;79.95;;;2.40;67.90;;;0.78;100.00;102480.34;5006396;28;20050;-79
2023/12/18 08:02:37;;;;;;;162.45;103.20;;;2.40;72.90;;;0.99;100.00;102513.31;5001847;28;20050;-78
2023/12/18 08:05:05;;;;;;;115.22;85.90;;;2.40;75.00;;;0.94;100.00;102488.88;4999375;28;20420;-78
2023/12/18 08:07:32;;;;;;;102.53;78.75;;;2.50;74.80;;;1.15;100.00;102498.53;4986394;28;20129;-78
2023/12/18 08:09:59;;;;;;;77.47;67.40;;;2.60;72.50;;;1.15;100.00;102496.84;4984075;28;20045;-77
2023/12/18 08:12:26;;;;;;;89.10;72.70;;;2.50;65.90;;;1.22;100.00;102492.84;4986555;28;20034;-78
2023/12/18 08:14:54;;;;;;;54.58;44.42;;;2.60;64.80;;;1.13;100.00;102486.38;5002661;28;20046;-78
2023/12/18 08:17:21;;;;;;;53.17;38.00;;;2.60;66.50;;;1.02;100.00;102469.44;4970574;28;20050;-77
2023/12/18 08:19:48;;;;;;;43.90;30.67;;;2.60;65.10;;;1.19;100.00;102493.56;4971408;28;20421;-78
2023/12/18 08:22:16;;;;;;;40.03;25.52;;;2.70;66.80;;;1.12;100.00;102478.53;5009322;28;20523;-78
2023/12/18 08:24:43;;;;;;;39.08;27.60;;;2.90;65.30;;;1.05;100.00;102466.97;4987163;28;20109;-79
2023/12/18 08:27:10;;;;;;;36.05;23.35;;;2.60;65.50;;;0.93;100.00;102445.63;5007484;28;20152;-80
2023/12/18 08:29:40;;;;;;;34.35;21.67;;;2.60;65.90;;;0.52;100.00;102371.09;4989047;28;20054;-78
2023/12/18 08:32:07;;;;;;;;;;;2.60;66.50;;;1.17;100.00;102489.13;4985617;28;20544;-79
2023/12/18 08:34:34;;;;;;;35.80;26.40;;;2.60;66.00;;;1.07;100.00;102492.97;4987118;28;20008;-80
2023/12/18 08:37:03;;;;;;;39.20;31.67;;;2.50;69.20;;;1.10;100.00;102475.00;5002750;28;20065;-80
2023/12/18 08:39:33;;;;;;;56.28;50.45;;;2.60;68.20;;;1.15;100.00;102481.28;4981224;28;20112;-80
2023/12/18 08:42:00;;;;;;;37.42;26.55;;;2.70;69.80;;;1.16;100.00;102484.75;4998761;28;20065;-79
2023/12/18 08:44:27;;;;;;;37.00;26.42;;;2.70;66.80;;;1.01;100.00;102448.59;4995375;28;20125;-81
2023/12/18 08:46:54;;;;;;;34.97;21.27;;;2.70;68.40;;;1.11;100.00;102461.22;4996946;28;20062;-81
2023/12/18 08:49:21;;;;;;;28.90;20.90;;;2.60;67.50;;;1.19;100.00;102472.81;4996487;28;20544;-79
2023/12/18 08:51:48;;;;;;;29.38;20.45;;;2.70;63.80;;;0.98;100.00;102423.41;4980794;28;20042;-79
2023/12/18 08:54:16;;;;;;;27.92;19.08;;;2.70;62.20;;;1.16;100.00;102446.75;4982052;28;20504;-79
2023/12/18 08:56:43;;;;;;;29.70;21.15;;;2.70;62.40;;;0.62;100.00;102377.59;5014022;28;20065;-81
2023/12/18 08:59:11;;;;;;;30.10;22.17;;;3.00;62.60;;;1.42;100.00;102476.53;4989269;28;20054;-80
2023/12/18 09:01:38;;;;;;;26.83;19.63;;;2.80;60.10;;;1.40;100.00;102457.41;5010600;28;20098;-80
2023/12/18 09:04:06;;;;;;;26.55;17.95;;;2.90;58.90;;;1.25;100.00;102441.13;5014706;28;20065;-81
2023/12/18 09:06:37;;;;;;;30.67;19.85;;;2.90;55.80;;;1.37;100.00;102467.66;4983513;28;20065;-82
2023/12/18 09:09:05;;;;;;;31.52;26.20;;;4.80;57.40;;;1.31;100.00;102448.31;4989900;28;20466;-81
2023/12/18 09:11:33;;;;;;;35.78;30.75;;;4.80;57.40;;;1.15;100.00;102411.25;4990742;28;20092;-81
2023/12/18 09:14:03;;;;;;;38.67;34.55;;;2.90;57.00;;;1.30;100.00;102431.84;4995562;28;20050;-80
2023/12/18 09:16:31;;;;;;;32.65;22.67;;;2.90;57.90;;;1.45;100.00;102461.91;4976487;28;20050;-79
2023/12/18 09:18:58;;;;;;;33.47;26.83;;;4.20;60.40;;;1.33;100.00;102431.09;4999503;28;20050;-80
2023/12/18 09:21:25;;;;;;;29.30;22.10;;;2.80;58.80;;;1.33;100.00;102439.78;4988342;28;20108;-81
2023/12/18 09:23:52;;;;;;;29.48;22.92;;;2.90;58.70;;;1.48;100.00;102454.28;5001919;28;20041;-80
2023/12/18 09:26:20;;;;;;;31.45;21.40;;;4.60;58.80;;;1.38;100.00;102434.78;4983719;28;20066;-81
2023/12/18 09:28:50;;;;;;;28.58;19.52;;;2.90;58.40;;;1.51;100.00;102457.03;4968142;28;20046;-80
2023/12/18 09:31:17;;;;;;;;;;;4.50;58.80;;;1.42;100.00;102431.56;4977209;28;20049;-80
2023/12/18 09:33:45;;;;;;;29.30;20.23;;;3.10;55.80;;;1.61;100.00;102442.78;4994083;28;19931;-80
2023/12/18 09:36:13;;;;;;;32.40;28.88;;;3.10;56.40;;;1.74;100.00;102447.72;4985675;28;20056;-79
2023/12/18 09:38:40;;;;;;;28.02;22.42;;;3.20;52.50;;;1.80;100.00;102448.00;4985943;28;20054;-80
2023/12/18 09:41:07;;;;;;;31.75;22.65;;;3.30;51.30;;;1.74;100.00;102428.66;4991603;28;20482;-79
2023/12/18 09:43:35;;;;;;;27.35;20.25;;;4.30;50.30;;;1.91;100.00;102455.41;4980502;28;20069;-79
2023/12/18 09:46:02;;;;;;;27.02;19.42;;;4.10;48.30;;;1.92;100.00;102447.66;4986696;28;20117;-79
2023/12/18 09:48:30;;;;;;;26.27;18.52;;;3.50;42.00;;;1.97;100.00;102434.88;5001281;28;20120;-78
2023/12/18 09:50:57;;;;;;;25.52;18.08;;;3.40;42.80;;;2.02;100.00;102437.69;4991697;28;20061;-78
2023/12/18 09:53:26;;;;;;;27.27;17.40;;;3.50;41.80;;;1.99;100.00;102438.44;5004707;28;20169;-78
2023/12/18 09:55:56;;;;;;;20.10;15.10;;;3.60;39.30;;;2.14;100.00;102438.25;4998709;28;20042;-76
2023/12/18 09:58:26;;;;;;;22.70;16.45;;;3.90;38.50;;;2.12;100.00;102414.78;4977939;28;20078;-81
2023/12/18 10:00:53;;;;;;;;;;;3.60;41.10;;;2.18;100.00;102416.78;4981026;28;20073;-77
2023/12/18 10:03:20;;;;;;;27.33;18.13;;;3.70;38.50;;;2.20;100.00;102409.94;4999574;28;19933;-77
2023/12/18 10:05:48;;;;;;;23.02;17.08;;;3.60;38.00;;;2.41;100.00;102442.84;5000505;28;20113;-78
2023/12/18 10:08:15;;;;;;;23.92;16.38;;;3.80;36.00;;;2.27;100.00;102395.50;5000978;28;20133;-77
2023/12/18 10:10:43;;;;;;;21.73;16.08;;;4.00;33.00;;;2.51;100.00;102433.75;4995543;28;20126;-79